Time;durP1;ratioP1;P1;durP2;ratioP2;P2;SDS_P1;SDS_P2;PMS_P1;PMS_P2;Temp;Humidity;BMP_temperature;BMP_pressure;BME280_temperature;BME280_humidity;BME280_pressure;Samples;Min_cycle;Max_cycle;Signal;HPM_P1;HPM_P2
2022/09/30 00:01:05;;;;;;;7.22;5.70;;;;;;;;;;2344914;57;21651;-76
2022/09/30 00:03:32;;;;;;;9.18;6.47;;;;;;;;;;2592825;53;21081;-77
2022/09/30 00:06:00;;;;;;;9.65;6.90;;;;;;;;;;2593616;53;21038;-77
2022/09/30 00:08:27;;;;;;;10.05;6.95;;;;;;;;;;2592728;53;21053;-76
2022/09/30 00:11:02;;;;;;;12.40;7.50;;;;;;;;;;2593242;53;21715;-77
2022/09/30 00:13:30;;;;;;;12.70;7.97;;;;;;;;;;2345590;57;21096;-77
2022/09/30 00:15:57;;;;;;;13.68;9.60;;;;;;;;;;2346500;57;21061;-75
2022/09/30 00:18:24;;;;;;;11.02;7.60;;;;;;;;;;2346014;57;21117;-77
2022/09/30 00:20:52;;;;;;;11.25;7.55;;;;;;;;;;2346186;57;21053;-77
2022/09/30 00:23:19;;;;;;;9.05;7.18;;;;;;;;;;2488121;52;21027;-75
2022/09/30 00:25:46;;;;;;;12.48;8.55;;;;;;;;;;2375707;56;21146;-78
2022/09/30 00:28:14;;;;;;;10.10;7.80;;;;;;;;;;2375301;56;21030;-76
2022/09/30 00:30:41;;;;;;;10.40;6.93;;;;;;;;;;2375103;56;21086;-76
2022/09/30 00:33:08;;;;;;;15.02;8.98;;;;;;;;;;2374150;56;21058;-76
2022/09/30 00:35:36;;;;;;;8.85;6.22;;;;;;;;;;2375050;56;21101;-76
2022/09/30 00:38:03;;;;;;;8.68;7.07;;;;;;;;;;2375121;56;21102;-76
2022/09/30 00:40:30;;;;;;;13.05;7.90;;;;;;;;;;2375382;56;21171;-75
2022/09/30 00:42:58;;;;;;;9.90;7.30;;;;;;;;;;2374943;56;21101;-79
2022/09/30 00:45:27;;;;;;;10.93;7.82;;;;;;;;;;2375638;56;21110;-77
2022/09/30 00:47:54;;;;;;;10.70;7.82;;;;;;;;;;2375351;56;21054;-75
2022/09/30 00:50:41;;;;;;;9.60;6.50;;;;;;;;;;2375504;56;21842;-79
2022/09/30 00:53:10;;;;;;;10.80;7.43;;;;;;;;;;2373932;56;21046;-76
2022/09/30 00:55:41;;;;;;;10.23;7.50;;;;;;;;;;2375511;56;21070;-76
2022/09/30 00:58:09;;;;;;;10.60;6.82;;;;;;;;;;2375811;56;21031;-78
2022/09/30 01:00:37;;;;;;;11.25;7.10;;;;;;;;;;2375467;56;21070;-76
2022/09/30 01:03:04;;;;;;;12.68;8.18;;;;;;;;;;2375179;56;21030;-75
2022/09/30 01:05:32;;;;;;;9.80;7.50;;;;;;;;;;2375956;56;21553;-76
2022/09/30 01:08:00;;;;;;;13.27;8.90;;;;;;;;;;2374482;56;21034;-77
2022/09/30 01:10:27;;;;;;;11.25;7.97;;;;;;;;;;2374381;56;21109;-75
2022/09/30 01:12:55;;;;;;;14.10;8.35;;;;;;;;;;2375100;56;21552;-76
2022/09/30 01:15:27;;;;;;;9.90;7.55;;;;;;;;;;2375340;56;21039;-75
2022/09/30 01:17:58;;;;;;;11.20;7.78;;;;;;;;;;2375421;56;21050;-76
2022/09/30 01:20:41;;;;;;;11.43;8.48;;;;;;;;;;2375225;56;21018;-76
2022/09/30 01:23:16;;;;;;;10.60;8.00;;;;;;;;;;2375592;56;21046;-75
2022/09/30 01:25:53;;;;;;;13.98;8.30;;;;;;;;;;2374158;56;21583;-79
2022/09/30 01:28:30;;;;;;;14.98;9.38;;;;;;;;;;2627859;52;21051;-76
2022/09/30 01:31:08;;;;;;;12.80;7.75;;;;;;;;;;2375230;56;21118;-76
2022/09/30 01:33:38;;;;;;;12.15;8.52;;;;;;;;;;2374718;56;21117;-76
2022/09/30 01:36:10;;;;;;;9.43;7.10;;;;;;;;;;2375371;56;21046;-76
2022/09/30 01:38:42;;;;;;;8.18;6.57;;;;;;;;;;2375297;56;21035;-75
2022/09/30 01:41:11;;;;;;;11.43;8.07;;;;;;;;;;2628257;52;21161;-75
2022/09/30 01:43:43;;;;;;;14.02;6.43;;;;;;;;;;2373875;56;21608;-75
2022/09/30 01:46:15;;;;;;;16.23;9.13;;;;;;;;;;2375834;56;21096;-76
2022/09/30 01:48:46;;;;;;;10.35;7.50;;;;;;;;;;2375385;56;21608;-76
2022/09/30 01:51:17;;;;;;;12.37;7.90;;;;;;;;;;2374266;56;21041;-76
2022/09/30 01:53:47;;;;;;;10.65;7.82;;;;;;;;;;2375442;56;21537;-76
2022/09/30 01:56:17;;;;;;;10.55;8.60;;;;;;;;;;2628132;52;21098;-77
2022/09/30 01:58:47;;;;;;;8.70;6.97;;;;;;;;;;2626618;52;21388;-77
2022/09/30 02:01:18;;;;;;;8.25;6.95;;;;;;;;;;2375244;56;21109;-76
2022/09/30 02:03:48;;;;;;;7.97;6.10;;;;;;;;;;2629700;52;21058;-75
2022/09/30 02:06:17;;;;;;;9.48;7.43;;;;;;;;;;2375262;56;21532;-76
2022/09/30 02:08:45;;;;;;;8.45;6.65;;;;;;;;;;2376125;56;21615;-77
2022/09/30 02:11:14;;;;;;;8.45;6.30;;;;;;;;;;2375415;56;21062;-79
2022/09/30 02:13:43;;;;;;;11.27;8.00;;;;;;;;;;2375545;56;22469;-76
2022/09/30 02:16:14;;;;;;;11.93;8.82;;;;;;;;;;2374513;56;21101;-75
2022/09/30 02:18:42;;;;;;;11.12;8.60;;;;;;;;;;2374931;56;21034;-78
2022/09/30 02:21:10;;;;;;;11.02;8.27;;;;;;;;;;2374435;56;22014;-79
2022/09/30 02:23:39;;;;;;;11.82;8.90;;;;;;;;;;2375203;56;21110;-77
2022/09/30 02:26:09;;;;;;;13.07;9.30;;;;;;;;;;2376104;56;21173;-76
2022/09/30 02:28:38;;;;;;;15.40;10.77;;;;;;;;;;2628758;52;21103;-76
2022/09/30 02:31:06;;;;;;;16.00;11.23;;;;;;;;;;2374766;56;21089;-76
2022/09/30 02:33:35;;;;;;;14.45;9.93;;;;;;;;;;2375506;56;21034;-75
2022/09/30 02:36:05;;;;;;;14.13;9.68;;;;;;;;;;2375167;56;21563;-79
2022/09/30 02:38:35;;;;;;;15.63;11.12;;;;;;;;;;2375392;56;21097;-75
2022/09/30 02:41:05;;;;;;;12.00;9.20;;;;;;;;;;2375279;56;21123;-75
2022/09/30 02:43:32;;;;;;;13.07;8.85;;;;;;;;;;2375395;56;21341;-75
2022/09/30 02:46:05;;;;;;;10.40;8.13;;;;;;;;;;2375736;56;21113;-76
2022/09/30 02:48:38;;;;;;;14.20;9.98;;;;;;;;;;2375946;56;21090;-76
2022/09/30 02:51:10;;;;;;;18.65;12.00;;;;;;;;;;2374756;56;21109;-75
2022/09/30 02:53:41;;;;;;;24.00;13.68;;;;;;;;;;2375466;56;21118;-78
2022/09/30 02:56:13;;;;;;;18.02;12.18;;;;;;;;;;2374203;56;21090;-76
2022/09/30 02:58:42;;;;;;;15.43;10.88;;;;;;;;;;2373778;56;21680;-76
2022/09/30 03:01:10;;;;;;;13.85;10.00;;;;;;;;;;2374126;56;21018;-76
2022/09/30 03:03:39;;;;;;;15.52;10.68;;;;;;;;;;2375647;56;21081;-75
2022/09/30 03:06:06;;;;;;;19.10;10.32;;;;;;;;;;2375269;56;21106;-75
2022/09/30 03:08:33;;;;;;;12.75;9.32;;;;;;;;;;2375232;56;21102;-75
2022/09/30 03:11:00;;;;;;;15.00;10.43;;;;;;;;;;2374764;56;21042;-76
2022/09/30 03:13:48;;;;;;;17.50;11.68;;;;;;;;;;2629003;52;21061;-76
2022/09/30 03:16:19;;;;;;;12.73;9.48;;;;;;;;;;2375462;56;21026;-75
2022/09/30 03:18:55;;;;;;;14.15;9.77;;;;;;;;;;2374310;56;21031;-77
2022/09/30 03:21:30;;;;;;;14.75;10.45;;;;;;;;;;2375463;56;22246;-75
2022/09/30 03:24:05;;;;;;;16.65;10.80;;;;;;;;;;2375982;56;21105;-76
2022/09/30 03:26:36;;;;;;;13.38;10.15;;;;;;;;;;2373989;56;21038;-76
2022/09/30 03:29:09;;;;;;;19.17;12.50;;;;;;;;;;2374162;56;21105;-77
2022/09/30 03:31:40;;;;;;;20.23;12.82;;;;;;;;;;2374345;56;21038;-75
2022/09/30 03:34:10;;;;;;;12.65;9.30;;;;;;;;;;2375801;56;21058;-79
2022/09/30 03:36:40;;;;;;;12.20;8.90;;;;;;;;;;2376073;56;21580;-75
2022/09/30 03:39:12;;;;;;;16.17;10.90;;;;;;;;;;2374651;56;21596;-76
2022/09/30 03:41:40;;;;;;;13.65;9.68;;;;;;;;;;2374831;56;21018;-75
2022/09/30 03:44:10;;;;;;;14.60;9.85;;;;;;;;;;2374345;56;21027;-76
2022/09/30 03:49:14;;;;;;;17.62;14.30;;;;;;;;;;2335895;57;28400;-76
2022/09/30 03:51:41;;;;;;;17.50;12.20;;;;;;;;;;2346775;57;21033;-75
2022/09/30 03:54:10;;;;;;;18.95;12.95;;;;;;;;;;2356640;56;21043;-80
2022/09/30 03:56:41;;;;;;;15.88;12.00;;;;;;;;;;2374311;56;21036;-79
2022/09/30 03:59:10;;;;;;;17.02;10.43;;;;;;;;;;2374306;56;21142;-76
2022/09/30 04:01:38;;;;;;;15.52;10.93;;;;;;;;;;2372925;56;21664;-79
2022/09/30 04:04:05;;;;;;;13.27;10.18;;;;;;;;;;2372994;56;21127;-76
2022/09/30 04:06:32;;;;;;;15.15;10.70;;;;;;;;;;2374193;56;21044;-76
2022/09/30 04:08:59;;;;;;;17.27;11.43;;;;;;;;;;2374853;56;21088;-76
2022/09/30 04:11:26;;;;;;;16.80;12.73;;;;;;;;;;2373425;56;21106;-80
2022/09/30 04:13:53;;;;;;;15.25;11.50;;;;;;;;;;2373909;56;21091;-76
2022/09/30 04:16:19;;;;;;;13.38;9.13;;;;;;;;;;2374272;56;21987;-76
2022/09/30 04:18:46;;;;;;;16.95;11.68;;;;;;;;;;2374210;56;21078;-76
2022/09/30 04:21:14;;;;;;;11.73;8.35;;;;;;;;;;2626617;52;21033;-77
2022/09/30 04:23:42;;;;;;;14.98;10.93;;;;;;;;;;2372339;56;21183;-75
2022/09/30 04:26:11;;;;;;;14.02;10.07;;;;;;;;;;2373186;56;21131;-77
2022/09/30 04:28:38;;;;;;;13.10;9.98;;;;;;;;;;2627749;52;21020;-76
2022/09/30 04:31:06;;;;;;;16.92;10.65;;;;;;;;;;2373293;56;21055;-77
2022/09/30 04:33:33;;;;;;;15.25;11.18;;;;;;;;;;2372567;56;21202;-75
2022/09/30 04:36:00;;;;;;;14.82;9.75;;;;;;;;;;2374378;56;21111;-75
2022/09/30 04:38:28;;;;;;;13.93;9.95;;;;;;;;;;2374377;56;21122;-77
2022/09/30 04:40:55;;;;;;;13.90;8.88;;;;;;;;;;2374037;56;21066;-76
2022/09/30 04:43:22;;;;;;;16.58;11.05;;;;;;;;;;2374186;56;21086;-76
2022/09/30 04:45:51;;;;;;;13.32;9.80;;;;;;;;;;2374879;56;21601;-76
2022/09/30 04:48:18;;;;;;;17.23;11.35;;;;;;;;;;2374828;56;21128;-77
2022/09/30 04:50:45;;;;;;;14.43;10.95;;;;;;;;;;2374720;56;21047;-77
2022/09/30 04:53:13;;;;;;;13.55;10.52;;;;;;;;;;2374373;56;21311;-77
2022/09/30 04:55:40;;;;;;;11.75;9.60;;;;;;;;;;2375146;56;21048;-78
2022/09/30 04:58:07;;;;;;;17.75;10.85;;;;;;;;;;2374842;56;21510;-76
2022/09/30 05:00:34;;;;;;;14.70;9.82;;;;;;;;;;2374274;56;21044;-79
2022/09/30 05:03:02;;;;;;;15.35;11.25;;;;;;;;;;2626821;52;21039;-76
2022/09/30 05:05:29;;;;;;;18.05;12.32;;;;;;;;;;2372469;56;21047;-80
2022/09/30 05:08:00;;;;;;;15.07;11.50;;;;;;;;;;2374004;56;21059;-76
2022/09/30 05:10:27;;;;;;;12.00;8.73;;;;;;;;;;2373887;56;21060;-76
2022/09/30 05:12:54;;;;;;;14.63;9.93;;;;;;;;;;2373192;56;21542;-78
2022/09/30 05:15:21;;;;;;;14.20;10.02;;;;;;;;;;2374153;56;21108;-78
2022/09/30 05:17:49;;;;;;;11.93;9.52;;;;;;;;;;2373209;56;21048;-77
2022/09/30 05:20:16;;;;;;;13.65;11.10;;;;;;;;;;2372239;56;21676;-79
2022/09/30 05:22:43;;;;;;;16.55;11.20;;;;;;;;;;2373792;56;21621;-74
2022/09/30 05:25:10;;;;;;;17.75;12.48;;;;;;;;;;2374139;56;21040;-74
2022/09/30 05:27:37;;;;;;;16.05;12.18;;;;;;;;;;2373845;56;21067;-75
2022/09/30 05:30:05;;;;;;;14.50;10.65;;;;;;;;;;2374491;56;21052;-77
2022/09/30 05:32:32;;;;;;;16.37;11.73;;;;;;;;;;2626832;52;21115;-79
2022/09/30 05:35:00;;;;;;;16.95;11.40;;;;;;;;;;2373860;56;21036;-75
2022/09/30 05:37:27;;;;;;;15.05;10.80;;;;;;;;;;2373538;56;21047;-75
2022/09/30 05:39:54;;;;;;;15.52;11.80;;;;;;;;;;2374283;56;21147;-75
2022/09/30 05:42:21;;;;;;;18.85;13.00;;;;;;;;;;2373251;56;21048;-76
2022/09/30 05:44:48;;;;;;;19.05;12.52;;;;;;;;;;2373774;56;21122;-74
2022/09/30 05:47:16;;;;;;;17.83;12.30;;;;;;;;;;2373776;56;21064;-79
2022/09/30 05:49:44;;;;;;;15.38;11.50;;;;;;;;;;2627248;52;21032;-74
2022/09/30 05:52:13;;;;;;;14.45;9.50;;;;;;;;;;2373533;56;21036;-74
2022/09/30 05:54:40;;;;;;;17.02;11.60;;;;;;;;;;2373898;56;21047;-77
2022/09/30 05:57:07;;;;;;;17.10;10.82;;;;;;;;;;2374112;56;21048;-75
2022/09/30 05:59:34;;;;;;;35.08;11.52;;;;;;;;;;2373787;56;21162;-75
2022/09/30 06:02:01;;;;;;;17.55;12.90;;;;;;;;;;2373009;56;21067;-75
2022/09/30 06:04:28;;;;;;;14.25;10.52;;;;;;;;;;2373937;56;21048;-74
2022/09/30 06:06:55;;;;;;;14.50;10.18;;;;;;;;;;2373994;56;21138;-76
2022/09/30 06:09:22;;;;;;;13.35;9.95;;;;;;;;;;2374042;56;21032;-75
2022/09/30 06:11:49;;;;;;;20.62;13.13;;;;;;;;;;2372980;56;21028;-77
2022/09/30 06:14:17;;;;;;;15.05;10.98;;;;;;;;;;2373960;56;21040;-75
2022/09/30 06:16:44;;;;;;;16.20;11.88;;;;;;;;;;2374132;56;21051;-78
2022/09/30 06:19:11;;;;;;;15.13;10.90;;;;;;;;;;2373629;56;21068;-74
2022/09/30 06:21:38;;;;;;;13.35;10.02;;;;;;;;;;2373123;56;21127;-75
2022/09/30 06:24:08;;;;;;;14.43;11.23;;;;;;;;;;2373936;56;21119;-74
2022/09/30 06:26:35;;;;;;;16.50;12.18;;;;;;;;;;2373913;56;21544;-75
2022/09/30 06:29:02;;;;;;;16.00;11.82;;;;;;;;;;2373843;56;21174;-78
2022/09/30 06:31:29;;;;;;;17.65;12.40;;;;;;;;;;2626103;52;21032;-75
2022/09/30 06:33:56;;;;;;;15.20;11.65;;;;;;;;;;2627317;52;21182;-76
2022/09/30 06:36:23;;;;;;;17.42;11.98;;;;;;;;;;2626880;52;21088;-75
2022/09/30 06:38:53;;;;;;;17.10;12.60;;;;;;;;;;2373971;56;21041;-77
2022/09/30 06:41:20;;;;;;;15.63;11.38;;;;;;;;;;2373606;56;21039;-75
2022/09/30 06:43:48;;;;;;;16.73;11.07;;;;;;;;;;2627594;52;21100;-77
2022/09/30 06:46:15;;;;;;;15.07;11.32;;;;;;;;;;2373941;56;21036;-77
2022/09/30 06:48:42;;;;;;;12.73;9.80;;;;;;;;;;2373974;56;21032;-77
2022/09/30 06:51:09;;;;;;;11.85;9.90;;;;;;;;;;2373779;56;21035;-75
2022/09/30 06:53:38;;;;;;;16.10;11.35;;;;;;;;;;2626970;52;21092;-76
2022/09/30 06:56:05;;;;;;;11.32;9.82;;;;;;;;;;2373323;56;21198;-76
2022/09/30 06:58:32;;;;;;;18.27;12.75;;;;;;;;;;2374250;56;21131;-76
2022/09/30 07:01:00;;;;;;;17.17;11.35;;;;;;;;;;2373696;56;21056;-75
2022/09/30 07:03:28;;;;;;;12.65;9.48;;;;;;;;;;2373571;56;21194;-76
2022/09/30 07:05:57;;;;;;;13.48;10.13;;;;;;;;;;2374229;56;21064;-75
2022/09/30 07:08:25;;;;;;;14.90;10.73;;;;;;;;;;2373990;56;21543;-76
2022/09/30 07:10:52;;;;;;;16.62;11.68;;;;;;;;;;2373337;56;21183;-75
2022/09/30 07:13:19;;;;;;;18.45;12.80;;;;;;;;;;2373160;56;21118;-79
2022/09/30 07:15:46;;;;;;;17.37;12.57;;;;;;;;;;2374091;56;21039;-76
2022/09/30 07:18:13;;;;;;;22.50;15.68;;;;;;;;;;2374048;56;21036;-75
2022/09/30 07:20:40;;;;;;;19.05;13.82;;;;;;;;;;2373684;56;21645;-76
2022/09/30 07:23:07;;;;;;;21.92;15.63;;;;;;;;;;2626991;52;21131;-75
2022/09/30 07:25:34;;;;;;;16.50;11.38;;;;;;;;;;2373721;56;21039;-77
2022/09/30 07:28:01;;;;;;;21.60;13.13;;;;;;;;;;2374025;56;21032;-76
2022/09/30 07:30:29;;;;;;;18.05;12.32;;;;;;;;;;2373243;56;21040;-77
2022/09/30 07:32:56;;;;;;;18.48;13.00;;;;;;;;;;2373120;56;21135;-79
2022/09/30 07:35:23;;;;;;;18.27;12.80;;;;;;;;;;2373195;56;21091;-75
2022/09/30 07:37:50;;;;;;;16.40;11.48;;;;;;;;;;2374250;56;21111;-74
2022/09/30 07:40:17;;;;;;;16.23;11.10;;;;;;;;;;2373910;56;21056;-76
2022/09/30 07:42:44;;;;;;;15.50;10.85;;;;;;;;;;2371356;56;22058;-75
2022/09/30 07:45:14;;;;;;;17.00;11.68;;;;;;;;;;2624211;52;21051;-77
2022/09/30 07:47:41;;;;;;;17.37;11.20;;;;;;;;;;2372552;56;21541;-75
2022/09/30 07:50:09;;;;;;;15.57;11.10;;;;;;;;;;2373652;56;21060;-75
2022/09/30 07:52:36;;;;;;;17.95;12.63;;;;;;;;;;2373591;56;21039;-74
2022/09/30 07:55:03;;;;;;;15.48;11.48;;;;;;;;;;2372214;56;21044;-79
2022/09/30 07:57:30;;;;;;;12.75;9.52;;;;;;;;;;2369646;56;21059;-75
2022/09/30 07:59:58;;;;;;;17.37;11.12;;;;;;;;;;2372897;56;21558;-77
2022/09/30 08:02:25;;;;;;;16.20;11.20;;;;;;;;;;2372174;56;21084;-75
2022/09/30 08:04:52;;;;;;;17.05;12.23;;;;;;;;;;2372607;56;21563;-78
2022/09/30 08:07:19;;;;;;;14.02;9.27;;;;;;;;;;2369673;56;21040;-76
2022/09/30 08:09:46;;;;;;;14.63;10.13;;;;;;;;;;2370666;56;22130;-75
2022/09/30 08:12:13;;;;;;;13.20;10.18;;;;;;;;;;2371634;56;21051;-77
2022/09/30 08:14:40;;;;;;;17.02;11.98;;;;;;;;;;2370898;56;21103;-75
2022/09/30 08:17:07;;;;;;;19.35;10.90;;;;;;;;;;2372851;56;21198;-79
2022/09/30 08:19:34;;;;;;;11.85;9.15;;;;;;;;;;2371729;56;21562;-75
2022/09/30 08:22:02;;;;;;;14.90;9.13;;;;;;;;;;2370765;56;21041;-77
2022/09/30 08:24:29;;;;;;;18.27;11.07;;;;;;;;;;2370797;56;21064;-76
2022/09/30 08:26:56;;;;;;;15.30;9.23;;;;;;;;;;2372314;56;21028;-75
2022/09/30 08:29:23;;;;;;;12.23;9.00;;;;;;;;;;2370880;56;21453;-75
2022/09/30 08:31:50;;;;;;;12.60;9.10;;;;;;;;;;2623792;52;21043;-75
2022/09/30 08:34:17;;;;;;;14.18;10.07;;;;;;;;;;2371380;56;21051;-80
2022/09/30 08:36:45;;;;;;;9.57;7.62;;;;;;;;;;2625306;52;21060;-78
2022/09/30 08:39:12;;;;;;;12.80;8.95;;;;;;;;;;2626627;52;21055;-79
2022/09/30 08:41:54;;;;;;;11.65;8.27;;;;;;;;;;2371108;56;21036;-74
2022/09/30 08:44:30;;;;;;;11.68;8.30;;;;;;;;;;2624561;52;21526;-75
2022/09/30 08:47:03;;;;;;;10.40;7.35;;;;;;;;;;2625733;52;21048;-74
2022/09/30 08:49:37;;;;;;;12.27;9.30;;;;;;;;;;2625620;52;21040;-74
2022/09/30 08:52:05;;;;;;;12.10;8.18;;;;;;;;;;2372823;56;21106;-75
2022/09/30 08:54:33;;;;;;;10.98;8.13;;;;;;;;;;2625674;52;21131;-75
2022/09/30 08:57:01;;;;;;;10.15;7.57;;;;;;;;;;2373037;56;21131;-74
2022/09/30 08:59:32;;;;;;;10.98;7.90;;;;;;;;;;2625438;52;21574;-75
2022/09/30 09:02:01;;;;;;;12.20;7.43;;;;;;;;;;2371726;56;22262;-75
2022/09/30 09:04:28;;;;;;;9.75;6.87;;;;;;;;;;2371532;56;21040;-77
2022/09/30 09:06:58;;;;;;;11.38;7.45;;;;;;;;;;2371277;56;21578;-75
2022/09/30 09:09:33;;;;;;;13.50;8.18;;;;;;;;;;2371301;56;21111;-75
2022/09/30 09:12:05;;;;;;;13.23;8.43;;;;;;;;;;2371699;56;21103;-79
2022/09/30 09:14:38;;;;;;;8.95;6.07;;;;;;;;;;2371870;56;21047;-77
2022/09/30 09:17:13;;;;;;;8.55;6.45;;;;;;;;;;2372317;56;21048;-78
2022/09/30 09:19:42;;;;;;;8.65;6.10;;;;;;;;;;2372295;56;22192;-74
2022/09/30 09:22:10;;;;;;;9.18;6.22;;;;;;;;;;2624415;52;21048;-75
2022/09/30 09:24:39;;;;;;;11.82;7.57;;;;;;;;;;2373573;56;21048;-75
2022/09/30 09:27:17;;;;;;;6.87;5.78;;;;;;;;;;2373796;56;21040;-75
2022/09/30 09:29:49;;;;;;;7.22;5.82;;;;;;;;;;2373302;56;21040;-75
2022/09/30 09:32:17;;;;;;;11.45;7.50;;;;;;;;;;2373135;56;21116;-75
2022/09/30 09:34:45;;;;;;;8.07;6.45;;;;;;;;;;2373782;56;21039;-75
2022/09/30 09:37:17;;;;;;;9.35;5.57;;;;;;;;;;2373675;56;21041;-76
2022/09/30 09:39:57;;;;;;;7.50;5.47;;;;;;;;;;2374249;56;21036;-75
2022/09/30 09:42:31;;;;;;;7.47;5.43;;;;;;;;;;2373319;56;21046;-78
2022/09/30 09:45:00;;;;;;;6.55;5.28;;;;;;;;;;2373113;56;21123;-77
2022/09/30 09:47:27;;;;;;;9.80;6.10;;;;;;;;;;2627324;52;21557;-75
2022/09/30 09:49:55;;;;;;;10.45;6.00;;;;;;;;;;2373009;56;21083;-75
2022/09/30 09:55:12;;;;;;;5.97;4.70;;;;;;;;;;2377996;56;22599;-74
2022/09/30 09:57:40;;;;;;;7.20;4.72;;;;;;;;;;2374726;56;21126;-76
2022/09/30 10:03:02;;;;;;;7.57;4.80;;;;;;;;;;2374663;56;20967;-74
2022/09/30 10:05:30;;;;;;;5.55;3.85;;;;;;;;;;2374827;56;21047;-74
2022/09/30 10:08:10;;;;;;;4.35;3.40;;;;;;;;;;2375230;56;21114;-74
2022/09/30 10:10:46;;;;;;;5.62;2.95;;;;;;;;;;2373427;56;21054;-77
2022/09/30 10:13:16;;;;;;;2.90;2.60;;;;;;;;;;2373703;56;21121;-74
2022/09/30 10:15:43;;;;;;;3.58;2.50;;;;;;;;;;2374462;56;21031;-75
2022/09/30 10:18:17;;;;;;;3.15;2.40;;;;;;;;;;2374098;56;21205;-75
2022/09/30 10:20:50;;;;;;;2.95;2.33;;;;;;;;;;2374598;56;21098;-74
2022/09/30 10:23:19;;;;;;;2.78;1.87;;;;;;;;;;2375298;56;21051;-74
2022/09/30 10:25:55;;;;;;;2.37;2.10;;;;;;;;;;2628282;52;21767;-75
2022/09/30 10:28:24;;;;;;;2.78;1.58;;;;;;;;;;2626713;52;21074;-75
2022/09/30 10:30:53;;;;;;;2.53;2.00;;;;;;;;;;2628262;52;21058;-75
2022/09/30 10:33:22;;;;;;;3.12;2.40;;;;;;;;;;2374564;56;21954;-74
2022/09/30 10:35:52;;;;;;;2.80;2.12;;;;;;;;;;2374838;56;21105;-75
2022/09/30 10:38:19;;;;;;;2.17;1.87;;;;;;;;;;2374542;56;21130;-77
2022/09/30 10:40:49;;;;;;;3.03;1.62;;;;;;;;;;2374368;56;21039;-76
2022/09/30 10:43:21;;;;;;;2.10;1.65;;;;;;;;;;2628433;52;21110;-74
2022/09/30 10:45:50;;;;;;;2.17;1.98;;;;;;;;;;2374641;56;21039;-74
2022/09/30 10:48:18;;;;;;;3.42;2.30;;;;;;;;;;2374605;56;21106;-74
2022/09/30 10:50:51;;;;;;;2.28;2.00;;;;;;;;;;2374879;56;21039;-75
2022/09/30 10:53:20;;;;;;;2.55;2.28;;;;;;;;;;2374969;56;21027;-74
2022/09/30 10:55:47;;;;;;;4.80;1.90;;;;;;;;;;2375369;56;21046;-75
2022/09/30 10:58:30;;;;;;;4.03;2.00;;;;;;;;;;2374876;56;21293;-76
2022/09/30 11:01:02;;;;;;;4.55;2.20;;;;;;;;;;2374588;56;21114;-76
2022/09/30 11:03:32;;;;;;;2.80;2.20;;;;;;;;;;2375251;56;21146;-75
2022/09/30 11:06:00;;;;;;;3.33;2.72;;;;;;;;;;2371732;56;21090;-79
2022/09/30 11:08:30;;;;;;;6.82;2.65;;;;;;;;;;2626112;52;21034;-77
2022/09/30 11:11:00;;;;;;;3.45;1.95;;;;;;;;;;2372612;56;21468;-75
2022/09/30 11:13:30;;;;;;;4.05;2.60;;;;;;;;;;2626118;52;21113;-79
2022/09/30 11:16:01;;;;;;;4.53;2.55;;;;;;;;;;2373493;56;21031;-76
2022/09/30 11:18:32;;;;;;;5.10;2.53;;;;;;;;;;2372101;56;21039;-76
2022/09/30 11:21:02;;;;;;;2.40;1.92;;;;;;;;;;2371983;56;21035;-76
2022/09/30 11:23:31;;;;;;;3.15;1.98;;;;;;;;;;2373016;56;21087;-75
2022/09/30 11:26:01;;;;;;;2.75;2.05;;;;;;;;;;2373922;56;21071;-76
2022/09/30 11:28:34;;;;;;;2.05;1.80;;;;;;;;;;2374519;56;21657;-77
2022/09/30 11:31:08;;;;;;;2.75;1.83;;;;;;;;;;2373594;56;21518;-76
2022/09/30 11:33:34;;;;;;;;;;;;;;;;;;2377505;56;21110;-76
2022/09/30 11:36:04;;;;;;;1.33;1.23;;;;;;;;;;2373835;56;20324;-76
2022/09/30 11:38:39;;;;;;;1.90;1.45;;;;;;;;;;2374065;56;21165;-76
2022/09/30 11:41:09;;;;;;;1.98;1.40;;;;;;;;;;2372865;56;21046;-75
2022/09/30 11:43:41;;;;;;;2.35;1.62;;;;;;;;;;2627132;52;21039;-75
2022/09/30 11:46:22;;;;;;;1.40;1.30;;;;;;;;;;2374020;56;21537;-76
2022/09/30 11:48:56;;;;;;;4.60;2.30;;;;;;;;;;2374204;56;21118;-77
2022/09/30 11:51:25;;;;;;;1.80;1.52;;;;;;;;;;2372624;56;21030;-74
2022/09/30 11:53:58;;;;;;;4.60;1.50;;;;;;;;;;2373540;56;21126;-75
2022/09/30 11:56:32;;;;;;;1.65;1.40;;;;;;;;;;2373832;56;21054;-74
2022/09/30 11:59:00;;;;;;;1.30;1.20;;;;;;;;;;2374414;56;21098;-76
2022/09/30 12:01:31;;;;;;;2.37;1.40;;;;;;;;;;2373856;56;21514;-75
2022/09/30 12:04:01;;;;;;;1.55;1.12;;;;;;;;;;2373854;56;21415;-75
2022/09/30 12:06:32;;;;;;;1.87;1.20;;;;;;;;;;2627349;52;21664;-75
2022/09/30 12:09:02;;;;;;;1.60;1.33;;;;;;;;;;2373308;56;21117;-76
2022/09/30 12:11:33;;;;;;;1.42;1.30;;;;;;;;;;2373846;56;21589;-75
2022/09/30 12:14:05;;;;;;;1.60;1.30;;;;;;;;;;2626719;52;21011;-75
2022/09/30 12:16:34;;;;;;;4.22;1.35;;;;;;;;;;2373627;56;21030;-75
2022/09/30 12:19:05;;;;;;;1.73;1.30;;;;;;;;;;2373817;56;21602;-75
2022/09/30 12:21:35;;;;;;;2.03;1.25;;;;;;;;;;2372317;56;21079;-76
2022/09/30 12:24:07;;;;;;;1.73;1.37;;;;;;;;;;2484639;54;21131;-77
2022/09/30 12:26:35;;;;;;;1.13;1.00;;;;;;;;;;2289059;58;21055;-77
2022/09/30 12:32:02;;;;;;;1.17;1.00;;;;;;;;;;2289969;58;20983;-75
2022/09/30 12:34:35;;;;;;;1.20;1.10;;;;;;;;;;2290619;58;21552;-76
2022/09/30 12:37:01;;;;;;;;;;;;;;;;;;2293652;58;21674;-78
2022/09/30 12:39:39;;;;;;;2.10;1.05;;;;;;;;;;2290468;58;20083;-77
2022/09/30 12:42:14;;;;;;;3.53;1.50;;;;;;;;;;2289375;58;21075;-75
2022/09/30 12:45:00;;;;;;;2.92;1.60;;;;;;;;;;2290709;58;21135;-76
2022/09/30 12:47:35;;;;;;;3.33;1.70;;;;;;;;;;2256216;58;21126;-77
2022/09/30 12:50:06;;;;;;;2.62;2.00;;;;;;;;;;2290689;58;21054;-75
2022/09/30 12:52:34;;;;;;;1.83;1.40;;;;;;;;;;2290077;58;21031;-74
2022/09/30 12:55:04;;;;;;;4.20;1.98;;;;;;;;;;2290016;58;21066;-78
2022/09/30 12:57:33;;;;;;;8.63;1.85;;;;;;;;;;2289566;58;21110;-75
2022/09/30 13:00:04;;;;;;;2.70;1.92;;;;;;;;;;2525984;55;21114;-78
2022/09/30 13:02:34;;;;;;;2.85;1.77;;;;;;;;;;2289322;58;21134;-74
2022/09/30 13:05:29;;;;;;;2.53;2.00;;;;;;;;;;2290488;58;21051;-75
2022/09/30 13:10:46;;;;;;;3.53;2.30;;;;;;;;;;2354056;57;22188;-78
2022/09/30 13:13:22;;;;;;;5.68;3.12;;;;;;;;;;2345506;56;21085;-75
2022/09/30 13:15:50;;;;;;;4.00;2.85;;;;;;;;;;2371608;56;21054;-75
2022/09/30 13:18:36;;;;;;;6.07;2.92;;;;;;;;;;2371460;56;21568;-77
2022/09/30 13:21:18;;;;;;;4.47;3.30;;;;;;;;;;2373633;56;21055;-78
2022/09/30 13:23:46;;;;;;;5.62;2.45;;;;;;;;;;2374292;56;21050;-77
2022/09/30 13:26:31;;;;;;;5.03;2.92;;;;;;;;;;2373378;56;21116;-76
2022/09/30 13:29:17;;;;;;;3.17;2.20;;;;;;;;;;2373789;56;21054;-75
2022/09/30 13:32:03;;;;;;;3.17;2.42;;;;;;;;;;2373991;56;21135;-76
2022/09/30 13:34:32;;;;;;;3.22;2.72;;;;;;;;;;2627313;52;21537;-76
2022/09/30 13:37:00;;;;;;;3.40;2.37;;;;;;;;;;2627062;52;22154;-75
2022/09/30 13:39:28;;;;;;;3.25;2.45;;;;;;;;;;2373613;56;21071;-76
2022/09/30 13:41:59;;;;;;;4.20;2.55;;;;;;;;;;2373290;56;21513;-76
2022/09/30 13:44:31;;;;;;;4.82;2.42;;;;;;;;;;2373096;56;21363;-76
2022/09/30 13:47:00;;;;;;;2.67;2.00;;;;;;;;;;2373541;56;21137;-76
2022/09/30 13:49:34;;;;;;;2.75;2.17;;;;;;;;;;2373289;56;21059;-75
2022/09/30 13:52:02;;;;;;;2.40;1.90;;;;;;;;;;2627385;52;21585;-78
2022/09/30 13:54:31;;;;;;;6.70;2.30;;;;;;;;;;2373905;56;21114;-78
2022/09/30 13:56:59;;;;;;;4.12;2.12;;;;;;;;;;2626857;52;21125;-75
2022/09/30 13:59:36;;;;;;;3.25;2.25;;;;;;;;;;2627249;52;21621;-77
2022/09/30 14:02:29;;;;;;;3.83;1.92;;;;;;;;;;2373335;56;21027;-75
2022/09/30 14:07:49;;;;;;;4.65;2.20;;;;;;;;;;2354255;57;22093;-75
2022/09/30 14:10:17;;;;;;;;;;;;;;;;;;2349989;57;21052;-77
2022/09/30 14:12:49;;;;;;;5.03;2.90;;;;;;;;;;2346214;57;20526;-74
2022/09/30 14:15:36;;;;;;;4.97;3.33;;;;;;;;;;2622453;52;21993;-77
2022/09/30 14:18:24;;;;;;;3.20;2.50;;;;;;;;;;2373408;56;21110;-77
2022/09/30 14:21:00;;;;;;;3.95;2.50;;;;;;;;;;2373289;56;21055;-76
2022/09/30 14:23:27;;;;;;;4.65;2.80;;;;;;;;;;2373731;56;21118;-75
2022/09/30 14:25:59;;;;;;;3.58;2.30;;;;;;;;;;2373742;56;21047;-74
2022/09/30 14:28:31;;;;;;;3.20;2.05;;;;;;;;;;2373558;56;21043;-74
2022/09/30 14:31:11;;;;;;;5.37;2.47;;;;;;;;;;2371742;56;21082;-75
2022/09/30 14:33:38;;;;;;;3.40;1.85;;;;;;;;;;2373650;56;21051;-77
2022/09/30 14:36:11;;;;;;;3.12;2.00;;;;;;;;;;2374113;56;21126;-77
2022/09/30 14:38:39;;;;;;;2.30;2.10;;;;;;;;;;2627774;52;21099;-77
2022/09/30 14:41:13;;;;;;;3.15;1.80;;;;;;;;;;2372771;56;21568;-78
2022/09/30 14:43:42;;;;;;;4.53;2.30;;;;;;;;;;2373373;56;21123;-77
2022/09/30 14:46:15;;;;;;;3.10;2.20;;;;;;;;;;2627288;52;21037;-77
2022/09/30 14:48:43;;;;;;;2.83;2.10;;;;;;;;;;2374545;56;21313;-76
2022/09/30 14:51:11;;;;;;;2.80;2.35;;;;;;;;;;2372898;56;21038;-77
2022/09/30 14:53:40;;;;;;;3.92;2.28;;;;;;;;;;2372783;56;21570;-78
2022/09/30 14:56:19;;;;;;;3.75;2.60;;;;;;;;;;2372180;56;21138;-78
2022/09/30 14:58:47;;;;;;;3.03;1.80;;;;;;;;;;2372759;56;21035;-76
2022/09/30 15:01:16;;;;;;;2.92;2.03;;;;;;;;;;2372875;56;21114;-77
2022/09/30 15:03:44;;;;;;;2.78;2.10;;;;;;;;;;2373259;56;21059;-78
2022/09/30 15:06:17;;;;;;;3.60;2.53;;;;;;;;;;2627068;52;21043;-78